createdAt,value
2022-10-06T00:01:04.107Z,99.90
2022-10-06T00:03:34.477Z,99.90
2022-10-06T00:06:03.768Z,99.90
2022-10-06T00:08:32.543Z,99.90
2022-10-06T00:11:00.703Z,99.90
2022-10-06T00:13:30.366Z,99.90
2022-10-06T00:15:58.679Z,99.90
2022-10-06T00:18:28.180Z,99.90
2022-10-06T00:20:59.244Z,99.90
2022-10-06T00:23:27.651Z,99.90
2022-10-06T00:25:56.241Z,99.90
2022-10-06T00:28:24.307Z,99.90
2022-10-06T00:30:53.735Z,99.90
2022-10-06T00:33:21.936Z,99.90
2022-10-06T00:35:59.206Z,99.90
2022-10-06T00:38:28.352Z,99.90
2022-10-06T00:40:57.273Z,99.90
2022-10-06T00:43:44.169Z,99.90
2022-10-06T00:46:17.957Z,99.90
2022-10-06T00:48:50.666Z,99.90
2022-10-06T00:51:21.303Z,99.90
2022-10-06T00:53:50.091Z,99.90
2022-10-06T00:56:18.230Z,99.90
2022-10-06T00:58:46.529Z,99.90
2022-10-06T01:01:14.660Z,99.90
2022-10-06T01:03:46.769Z,99.90
2022-10-06T01:06:14.992Z,99.90
2022-10-06T01:08:44.597Z,99.90
2022-10-06T01:11:14.360Z,99.90
2022-10-06T01:13:45.007Z,99.90
2022-10-06T01:16:19.371Z,99.90
2022-10-06T01:18:49.536Z,99.90
2022-10-06T01:21:24.326Z,99.90
2022-10-06T01:23:54.033Z,99.90
2022-10-06T01:26:24.357Z,99.90
2022-10-06T01:28:53.089Z,99.90
2022-10-06T01:31:22.158Z,99.90
2022-10-06T01:33:53.247Z,99.90
2022-10-06T01:36:22.214Z,99.90
2022-10-06T01:38:53.693Z,99.90
2022-10-06T01:41:24.865Z,99.90
2022-10-06T01:43:52.893Z,99.90
2022-10-06T01:46:21.959Z,99.90
2022-10-06T01:48:50.313Z,99.90
2022-10-06T01:51:18.636Z,99.90
2022-10-06T01:53:46.626Z,99.90
2022-10-06T01:56:16.248Z,99.90
2022-10-06T01:58:44.494Z,99.90
2022-10-06T02:01:13.262Z,99.90
2022-10-06T02:03:42.171Z,99.90
2022-10-06T02:06:10.869Z,99.90
2022-10-06T02:08:39.364Z,99.90
2022-10-06T02:11:10.061Z,99.90
2022-10-06T02:13:51.024Z,99.90
2022-10-06T02:16:19.178Z,99.90
2022-10-06T02:18:47.482Z,99.90
2022-10-06T02:21:16.960Z,99.90
2022-10-06T02:23:45.187Z,99.90
2022-10-06T02:26:14.511Z,99.90
2022-10-06T02:28:44.816Z,99.90
2022-10-06T02:31:16.339Z,99.90
2022-10-06T02:33:45.069Z,99.90
2022-10-06T02:36:15.449Z,99.90
2022-10-06T02:38:43.758Z,99.90
2022-10-06T02:41:12.059Z,99.90
2022-10-06T02:43:40.623Z,99.90
2022-10-06T02:46:12.190Z,99.90
2022-10-06T02:48:45.744Z,99.90
2022-10-06T02:51:16.302Z,99.90
2022-10-06T02:53:47.481Z,99.90
2022-10-06T02:56:18.027Z,99.90
2022-10-06T02:58:48.429Z,99.90
2022-10-06T03:01:25.750Z,99.90
2022-10-06T03:03:57.398Z,99.90
2022-10-06T03:06:27.058Z,99.90
2022-10-06T03:09:00.394Z,99.90
2022-10-06T03:11:30.642Z,99.90
2022-10-06T03:13:59.671Z,99.90
2022-10-06T03:16:30.233Z,99.90
2022-10-06T03:19:01.440Z,99.90
2022-10-06T03:21:32.540Z,99.90
2022-10-06T03:24:01.694Z,99.90
2022-10-06T03:26:32.103Z,99.90
2022-10-06T03:29:00.787Z,99.90
2022-10-06T03:31:29.602Z,99.90
2022-10-06T03:33:58.327Z,99.90
2022-10-06T03:36:32.522Z,99.90
2022-10-06T03:39:03.336Z,99.90
2022-10-06T03:41:35.086Z,99.90
2022-10-06T03:44:03.971Z,99.90
2022-10-06T03:46:35.291Z,99.90
2022-10-06T03:49:06.453Z,99.90
2022-10-06T03:51:37.683Z,99.90
2022-10-06T03:54:07.798Z,99.90
2022-10-06T03:56:38.360Z,99.90
2022-10-06T03:59:08.957Z,99.90
2022-10-06T04:01:39.796Z,99.90
2022-10-06T04:04:09.960Z,99.90
2022-10-06T04:06:42.433Z,99.90
2022-10-06T04:09:15.957Z,99.90
2022-10-06T04:11:46.375Z,99.90
2022-10-06T04:14:16.465Z,99.90
2022-10-06T04:16:47.403Z,99.90
2022-10-06T04:19:18.892Z,99.90
2022-10-06T04:21:52.122Z,99.90
2022-10-06T04:24:23.834Z,99.90
2022-10-06T04:26:53.007Z,99.90
2022-10-06T04:29:22.753Z,99.90
2022-10-06T04:31:56.724Z,99.90
2022-10-06T04:34:31.244Z,99.90
2022-10-06T04:37:00.796Z,99.90
2022-10-06T04:39:28.920Z,99.90
2022-10-06T04:41:57.040Z,99.90
2022-10-06T04:44:29.616Z,99.90
2022-10-06T04:47:01.545Z,99.90
2022-10-06T04:49:29.686Z,99.90
2022-10-06T04:51:58.311Z,99.90
2022-10-06T04:54:33.364Z,99.90
2022-10-06T04:57:02.491Z,99.90
2022-10-06T04:59:45.761Z,99.90
2022-10-06T05:02:16.924Z,99.90
2022-10-06T05:04:46.295Z,99.90
2022-10-06T05:07:16.729Z,99.90
2022-10-06T05:09:46.723Z,99.90
2022-10-06T05:12:14.961Z,99.90
2022-10-06T05:14:46.795Z,99.90
2022-10-06T05:17:15.301Z,99.90
2022-10-06T05:19:43.719Z,99.90
2022-10-06T05:22:12.738Z,99.90
2022-10-06T05:24:41.255Z,99.90
2022-10-06T05:27:10.683Z,99.90
2022-10-06T05:29:39.311Z,99.90
2022-10-06T05:32:09.217Z,99.90
2022-10-06T05:34:38.437Z,99.90
2022-10-06T05:37:07.194Z,99.90
2022-10-06T05:39:36.510Z,99.90
2022-10-06T05:42:04.727Z,99.90
2022-10-06T05:44:34.528Z,99.90
2022-10-06T05:47:07.129Z,99.90
2022-10-06T05:49:35.882Z,99.90
2022-10-06T05:52:05.548Z,99.90
2022-10-06T05:54:35.699Z,99.90
2022-10-06T05:57:04.078Z,99.90
2022-10-06T05:59:35.655Z,99.90
2022-10-06T06:02:05.776Z,99.90
2022-10-06T06:04:38.723Z,99.90
2022-10-06T06:07:07.183Z,99.90
2022-10-06T06:09:35.169Z,99.90
2022-10-06T06:12:06.817Z,99.90
2022-10-06T06:15:03.063Z,99.90
2022-10-06T06:17:36.821Z,99.90
2022-10-06T06:20:07.537Z,99.90
2022-10-06T06:22:36.043Z,99.90
2022-10-06T06:25:06.410Z,99.90
2022-10-06T06:27:35.767Z,99.90
2022-10-06T06:30:07.775Z,99.90
2022-10-06T06:32:36.883Z,99.90
2022-10-06T06:35:05.941Z,99.90
2022-10-06T06:37:34.260Z,99.90
2022-10-06T06:40:03.165Z,99.90
2022-10-06T06:42:34.601Z,99.90
2022-10-06T06:45:23.195Z,99.90
2022-10-06T06:48:05.862Z,99.90
2022-10-06T06:50:34.801Z,99.90
2022-10-06T06:53:04.340Z,99.90
2022-10-06T06:55:35.150Z,99.90
2022-10-06T06:58:03.250Z,99.90
2022-10-06T07:00:36.253Z,99.90
2022-10-06T07:03:06.064Z,99.90
2022-10-06T07:05:35.155Z,99.90
2022-10-06T07:08:03.665Z,99.90
2022-10-06T07:10:35.485Z,99.90
2022-10-06T07:13:04.490Z,99.90
2022-10-06T07:15:51.857Z,99.90
2022-10-06T07:18:36.383Z,99.90
2022-10-06T07:21:22.737Z,99.90
2022-10-06T07:24:09.238Z,99.90
2022-10-06T07:26:37.556Z,99.90
2022-10-06T07:29:05.605Z,97.40
2022-10-06T07:31:36.711Z,97.30
2022-10-06T07:34:06.501Z,96.20
2022-10-06T07:36:34.939Z,96.20
2022-10-06T07:39:03.394Z,96.10
2022-10-06T07:41:32.713Z,96.50
2022-10-06T07:44:07.975Z,96.30
2022-10-06T07:46:39.127Z,96.00
2022-10-06T07:49:12.309Z,95.80
2022-10-06T07:51:41.115Z,96.10
2022-10-06T07:54:09.269Z,96.10
2022-10-06T07:56:45.880Z,95.90
2022-10-06T07:59:14.005Z,95.20
2022-10-06T08:01:44.555Z,94.80
2022-10-06T08:04:13.214Z,94.60
2022-10-06T08:06:41.908Z,93.70
2022-10-06T08:09:09.929Z,93.00
2022-10-06T08:11:37.994Z,92.30
2022-10-06T08:14:06.110Z,90.50
2022-10-06T08:16:34.263Z,90.20
2022-10-06T08:19:03.730Z,88.20
2022-10-06T08:21:34.475Z,86.40
2022-10-06T08:24:03.042Z,86.10
2022-10-06T08:26:33.298Z,81.80
2022-10-06T08:29:03.352Z,81.80
2022-10-06T08:31:32.889Z,81.00
2022-10-06T08:34:01.403Z,79.30
2022-10-06T08:36:32.594Z,78.50
2022-10-06T08:39:00.920Z,75.70
2022-10-06T08:41:39.813Z,74.20
2022-10-06T08:44:20.445Z,70.00
2022-10-06T08:46:55.374Z,67.00
2022-10-06T08:49:26.910Z,62.60
2022-10-06T08:52:04.313Z,58.80
2022-10-06T08:54:40.391Z,55.30
2022-10-06T08:57:14.467Z,52.30
2022-10-06T08:59:46.188Z,48.10
2022-10-06T09:02:29.413Z,43.50
2022-10-06T09:04:59.697Z,41.90
2022-10-06T09:07:40.261Z,39.90
2022-10-06T09:10:32.913Z,37.20
2022-10-06T09:13:06.693Z,37.00
2022-10-06T09:15:40.640Z,35.30
2022-10-06T09:18:14.272Z,35.30
2022-10-06T09:20:44.306Z,34.60
2022-10-06T09:23:17.926Z,34.10
2022-10-06T09:25:46.069Z,33.50
2022-10-06T09:28:17.471Z,31.70
2022-10-06T09:30:45.577Z,31.40
2022-10-06T09:33:21.835Z,30.70
2022-10-06T09:36:11.327Z,29.70
2022-10-06T09:38:55.189Z,29.60
2022-10-06T09:41:27.750Z,29.60
2022-10-06T09:43:58.505Z,29.40
2022-10-06T09:46:33.171Z,29.40
2022-10-06T09:49:12.297Z,29.70
2022-10-06T09:51:40.669Z,29.30
2022-10-06T09:54:15.890Z,29.00
2022-10-06T09:56:47.225Z,28.80
2022-10-06T09:59:22.163Z,29.80
2022-10-06T10:01:54.007Z,30.50
2022-10-06T10:04:26.182Z,31.50
2022-10-06T10:06:54.853Z,33.30
2022-10-06T10:09:28.290Z,34.10
2022-10-06T10:12:27.985Z,34.70
2022-10-06T10:15:04.984Z,33.00
2022-10-06T10:17:49.124Z,30.90
2022-10-06T10:20:39.858Z,29.60
2022-10-06T10:23:27.245Z,28.40
2022-10-06T10:26:17.741Z,27.20
2022-10-06T10:29:15.116Z,26.80
2022-10-06T10:31:51.281Z,25.90
2022-10-06T10:34:43.926Z,26.40
2022-10-06T10:37:15.198Z,26.50
2022-10-06T10:39:50.314Z,25.60
2022-10-06T10:42:24.409Z,25.50
2022-10-06T10:44:58.486Z,25.60
2022-10-06T10:47:29.588Z,25.00
2022-10-06T10:50:03.902Z,24.70
2022-10-06T10:52:37.989Z,24.50
2022-10-06T10:55:23.407Z,24.80
2022-10-06T10:57:55.075Z,24.30
2022-10-06T11:00:26.046Z,24.00
2022-10-06T11:02:56.625Z,24.20
2022-10-06T11:05:38.083Z,23.60
2022-10-06T11:08:11.475Z,23.50
2022-10-06T11:10:46.784Z,23.40
2022-10-06T11:13:24.177Z,23.30
2022-10-06T11:16:12.004Z,23.30
2022-10-06T11:18:50.741Z,23.60
2022-10-06T11:21:23.984Z,23.50
2022-10-06T11:23:56.866Z,23.60
2022-10-06T11:26:44.926Z,23.70
2022-10-06T11:29:28.198Z,23.60
2022-10-06T11:32:01.134Z,23.40
2022-10-06T11:34:29.359Z,23.10
2022-10-06T11:37:02.696Z,23.10
2022-10-06T11:39:37.380Z,23.20
2022-10-06T11:42:15.634Z,23.20
2022-10-06T11:44:48.792Z,23.90
2022-10-06T11:47:34.306Z,23.20
2022-10-06T11:50:03.511Z,23.30
2022-10-06T11:52:53.667Z,23.20
2022-10-06T11:55:26.289Z,23.20
2022-10-06T11:58:37.471Z,23.20
2022-10-06T12:01:02.524Z,22.50
2022-10-06T12:04:05.240Z,23.00
2022-10-06T12:07:04.028Z,22.40
2022-10-06T12:09:52.797Z,22.50
2022-10-06T12:13:06.238Z,23.40
2022-10-06T12:19:18.708Z,22.70
2022-10-06T12:21:54.639Z,23.10
2022-10-06T12:24:39.033Z,22.80
2022-10-06T12:27:27.287Z,23.70
2022-10-06T12:30:01.888Z,23.70
2022-10-06T12:32:40.586Z,23.50
2022-10-06T12:35:20.790Z,23.60
2022-10-06T12:37:54.548Z,23.50
2022-10-06T12:40:55.416Z,23.60
2022-10-06T12:43:54.980Z,23.40
2022-10-06T12:46:35.625Z,23.30
2022-10-06T12:49:15.461Z,23.40
2022-10-06T12:51:47.938Z,23.20
2022-10-06T12:54:21.233Z,23.20
2022-10-06T12:56:59.992Z,23.90
2022-10-06T12:59:30.157Z,23.70
2022-10-06T13:02:00.116Z,24.10
2022-10-06T13:04:40.100Z,24.20
2022-10-06T13:07:17.633Z,24.50
2022-10-06T13:09:47.422Z,25.00
2022-10-06T13:12:32.604Z,25.70
2022-10-06T13:15:19.771Z,25.90
2022-10-06T13:17:51.586Z,26.40
2022-10-06T13:20:22.945Z,27.20
2022-10-06T13:23:07.389Z,27.80
2022-10-06T13:25:42.546Z,27.90
2022-10-06T13:28:21.986Z,28.30
2022-10-06T13:30:54.675Z,28.90
2022-10-06T13:33:24.919Z,29.60
2022-10-06T13:35:54.720Z,30.30
2022-10-06T13:38:24.224Z,31.50
2022-10-06T13:41:18.033Z,32.30
2022-10-06T13:43:48.806Z,33.20
2022-10-06T13:46:20.460Z,35.10
2022-10-06T13:48:52.344Z,35.90
2022-10-06T13:51:23.567Z,36.70
2022-10-06T13:53:54.212Z,37.80
2022-10-06T13:56:38.366Z,38.50
2022-10-06T13:59:27.415Z,39.40
2022-10-06T14:01:55.559Z,40.30
2022-10-06T14:04:24.099Z,41.00
2022-10-06T14:06:54.986Z,41.80
2022-10-06T14:09:27.548Z,42.60
2022-10-06T14:12:03.978Z,43.50
2022-10-06T14:14:32.847Z,44.00
2022-10-06T14:17:00.816Z,44.80
2022-10-06T14:19:38.889Z,45.50
2022-10-06T14:22:08.147Z,45.60
2022-10-06T14:24:37.637Z,45.70
2022-10-06T14:27:07.692Z,45.70
2022-10-06T14:29:37.871Z,46.00
2022-10-06T14:32:11.208Z,46.00
2022-10-06T14:34:41.059Z,46.90
2022-10-06T14:37:15.420Z,47.90
2022-10-06T14:39:45.343Z,48.50
2022-10-06T14:42:14.918Z,48.30
2022-10-06T14:44:43.296Z,48.40
2022-10-06T14:47:11.387Z,48.70
2022-10-06T14:49:40.630Z,48.90
2022-10-06T14:52:10.513Z,49.30
2022-10-06T14:54:39.790Z,49.40
2022-10-06T14:57:09.706Z,49.60
2022-10-06T14:59:38.064Z,50.50
2022-10-06T15:02:06.158Z,50.60
2022-10-06T15:04:34.324Z,51.00
2022-10-06T15:07:20.092Z,51.40
2022-10-06T15:09:48.332Z,51.90
2022-10-06T15:12:17.939Z,51.70
2022-10-06T15:14:45.942Z,51.60
2022-10-06T15:17:14.057Z,52.10
2022-10-06T15:19:42.282Z,52.60
2022-10-06T15:22:10.413Z,52.40
2022-10-06T15:24:38.734Z,52.40
2022-10-06T15:27:25.253Z,52.00
2022-10-06T15:29:57.516Z,52.60
2022-10-06T15:32:25.584Z,52.60
2022-10-06T15:34:55.435Z,52.80
2022-10-06T15:37:23.577Z,52.80
2022-10-06T15:39:52.291Z,52.90
2022-10-06T15:42:24.044Z,53.20
2022-10-06T15:44:52.321Z,53.30
2022-10-06T15:47:23.807Z,53.70
2022-10-06T15:49:52.230Z,53.80
2022-10-06T15:52:20.232Z,54.10
2022-10-06T15:54:49.820Z,54.40
2022-10-06T15:57:21.043Z,54.90
2022-10-06T15:59:49.632Z,55.00
2022-10-06T16:02:19.747Z,55.30
2022-10-06T16:05:16.437Z,55.40
2022-10-06T16:07:44.683Z,56.10
2022-10-06T16:10:13.494Z,57.10
2022-10-06T16:12:41.764Z,57.20
2022-10-06T16:15:10.537Z,57.00
2022-10-06T16:17:38.627Z,57.10
2022-10-06T16:20:09.646Z,57.30
2022-10-06T16:22:38.167Z,57.40
2022-10-06T16:25:07.096Z,58.00
2022-10-06T16:27:35.600Z,58.20
2022-10-06T16:30:03.794Z,58.60
2022-10-06T16:32:31.855Z,58.90
2022-10-06T16:34:59.955Z,58.90
2022-10-06T16:37:29.330Z,59.70
2022-10-06T16:42:45.003Z,60.40
2022-10-06T16:45:14.711Z,60.80
2022-10-06T16:47:42.721Z,61.80
2022-10-06T16:50:10.906Z,61.70
2022-10-06T16:52:40.841Z,62.10
2022-10-06T16:55:09.195Z,61.90
2022-10-06T16:57:37.173Z,63.60
2022-10-06T17:00:06.027Z,64.00
2022-10-06T17:02:35.047Z,64.50
2022-10-06T17:05:03.098Z,66.10
2022-10-06T17:07:31.411Z,65.40
2022-10-06T17:10:19.577Z,66.50
2022-10-06T17:12:48.550Z,67.40
2022-10-06T17:15:16.590Z,69.50
2022-10-06T17:17:44.750Z,69.90
2022-10-06T17:20:15.625Z,70.30
2022-10-06T17:22:44.416Z,71.00
2022-10-06T17:25:14.236Z,74.90
2022-10-06T17:27:42.343Z,77.10
2022-10-06T17:30:11.589Z,76.90
2022-10-06T17:32:40.318Z,77.00
2022-10-06T17:35:09.237Z,81.50
2022-10-06T17:37:40.458Z,82.70
2022-10-06T17:40:09.329Z,85.20
2022-10-06T17:42:39.004Z,87.70
2022-10-06T17:45:07.690Z,88.00
2022-10-06T17:47:35.662Z,89.00
2022-10-06T17:50:03.865Z,88.20
2022-10-06T17:52:32.856Z,88.60
2022-10-06T17:55:00.960Z,90.80
2022-10-06T17:57:29.687Z,91.90
2022-10-06T17:59:59.283Z,91.70
2022-10-06T18:02:27.962Z,91.80
2022-10-06T18:04:56.390Z,92.40
2022-10-06T18:07:26.206Z,92.50
2022-10-06T18:10:08.336Z,93.50
2022-10-06T18:12:38.731Z,94.60
2022-10-06T18:15:12.482Z,95.20
2022-10-06T18:17:41.409Z,94.80
2022-10-06T18:20:09.900Z,95.50
2022-10-06T18:22:38.232Z,96.30
2022-10-06T18:25:08.520Z,97.50
2022-10-06T18:27:36.865Z,97.60
2022-10-06T18:30:05.610Z,98.30
2022-10-06T18:38:12.469Z,98.60
2022-10-06T18:40:40.416Z,99.20
2022-10-06T18:43:08.773Z,99.00
2022-10-06T18:45:54.107Z,99.20
2022-10-06T18:48:41.107Z,99.50
2022-10-06T18:51:09.107Z,99.90
2022-10-06T18:53:39.147Z,99.90
2022-10-06T18:56:07.798Z,99.90
2022-10-06T18:58:40.651Z,99.90
2022-10-06T19:01:09.277Z,99.90
2022-10-06T19:03:38.655Z,99.90
2022-10-06T19:06:07.813Z,99.90
2022-10-06T19:08:35.989Z,99.90
2022-10-06T19:11:22.610Z,99.90
2022-10-06T19:13:53.372Z,99.90
2022-10-06T19:16:21.948Z,99.90
2022-10-06T19:18:51.285Z,99.90
2022-10-06T19:21:19.382Z,99.90
2022-10-06T19:23:50.280Z,99.90
2022-10-06T19:26:22.586Z,99.90
2022-10-06T19:28:53.744Z,99.90
2022-10-06T19:31:22.161Z,99.90
2022-10-06T19:33:51.617Z,99.90
2022-10-06T19:36:19.854Z,99.90
2022-10-06T19:38:48.132Z,99.90
2022-10-06T19:41:32.678Z,99.90
2022-10-06T19:44:03.248Z,99.90
2022-10-06T19:46:31.477Z,99.90
2022-10-06T19:49:05.789Z,99.90
2022-10-06T19:51:34.590Z,99.90
2022-10-06T19:54:03.470Z,99.90
2022-10-06T19:56:33.305Z,99.90
2022-10-06T19:59:01.956Z,99.90
2022-10-06T20:01:31.180Z,99.90
2022-10-06T20:04:03.507Z,99.90
2022-10-06T20:06:32.105Z,99.90
2022-10-06T20:09:05.715Z,99.90
2022-10-06T20:11:35.969Z,99.90
2022-10-06T20:14:04.650Z,99.90
2022-10-06T20:16:33.423Z,99.90
2022-10-06T20:19:03.169Z,99.90
2022-10-06T20:21:32.788Z,99.90
2022-10-06T20:24:03.736Z,99.90
2022-10-06T20:26:34.119Z,99.90
2022-10-06T20:29:05.464Z,99.90
2022-10-06T20:31:36.026Z,99.90
2022-10-06T20:34:08.565Z,99.90
2022-10-06T20:36:38.047Z,99.90
2022-10-06T20:39:24.548Z,99.90
2022-10-06T20:41:53.225Z,99.90
2022-10-06T20:44:21.553Z,99.90
2022-10-06T20:46:50.230Z,99.90
2022-10-06T20:49:19.676Z,99.90
2022-10-06T20:51:51.535Z,99.90
2022-10-06T20:54:21.074Z,99.90
2022-10-06T20:56:50.358Z,99.90
2022-10-06T20:59:19.700Z,99.90
2022-10-06T21:01:48.686Z,99.90
2022-10-06T21:04:17.103Z,99.90
2022-10-06T21:06:47.220Z,99.90
2022-10-06T21:09:17.215Z,99.90
2022-10-06T21:11:46.016Z,99.90
2022-10-06T21:14:15.398Z,99.90
2022-10-06T21:16:46.155Z,99.90
2022-10-06T21:19:16.389Z,99.90
2022-10-06T21:21:49.891Z,99.90
2022-10-06T21:24:19.215Z,99.90
2022-10-06T21:26:47.553Z,99.90
2022-10-06T21:29:36.457Z,99.90
2022-10-06T21:32:04.969Z,99.90
2022-10-06T21:34:33.009Z,99.90
2022-10-06T21:37:02.683Z,99.90
2022-10-06T21:39:30.753Z,99.90
2022-10-06T21:41:58.932Z,99.90
2022-10-06T21:44:27.016Z,99.90
2022-10-06T21:46:56.463Z,99.90
2022-10-06T21:49:26.081Z,99.90
2022-10-06T21:51:56.031Z,99.90
2022-10-06T21:54:25.610Z,99.90
2022-10-06T21:56:53.822Z,99.90
2022-10-06T21:59:22.051Z,99.90
2022-10-06T22:01:50.714Z,99.90
2022-10-06T22:04:19.648Z,99.90
2022-10-06T22:06:50.112Z,99.90
2022-10-06T22:09:20.280Z,99.90
2022-10-06T22:11:50.632Z,99.90
2022-10-06T22:14:19.938Z,99.90
2022-10-06T22:16:49.509Z,99.90
2022-10-06T22:19:18.462Z,99.90
2022-10-06T22:21:48.966Z,99.90
2022-10-06T22:24:19.508Z,99.90
2022-10-06T22:26:49.694Z,99.90
2022-10-06T22:29:20.104Z,99.90
2022-10-06T22:31:48.905Z,99.90
2022-10-06T22:34:19.366Z,99.90
2022-10-06T22:36:47.879Z,99.90
2022-10-06T22:39:16.099Z,99.90
2022-10-06T22:41:45.350Z,99.90
2022-10-06T22:44:15.118Z,99.90
2022-10-06T22:46:44.542Z,99.90
2022-10-06T22:49:12.650Z,99.90
2022-10-06T22:51:41.044Z,99.90
2022-10-06T22:54:09.241Z,99.90
2022-10-06T22:56:37.786Z,99.90
2022-10-06T22:59:05.961Z,99.90
2022-10-06T23:01:35.480Z,99.90
2022-10-06T23:04:03.835Z,99.90
2022-10-06T23:06:31.942Z,99.90
2022-10-06T23:09:00.431Z,99.90
2022-10-06T23:11:29.116Z,99.90
2022-10-06T23:13:57.175Z,99.90
2022-10-06T23:16:25.548Z,99.90
2022-10-06T23:18:55.375Z,99.90
2022-10-06T23:21:27.506Z,99.90
2022-10-06T23:23:57.758Z,99.90
2022-10-06T23:26:26.029Z,99.90
2022-10-06T23:28:56.014Z,99.90
2022-10-06T23:31:25.364Z,99.90
2022-10-06T23:33:55.348Z,99.90
2022-10-06T23:36:23.670Z,99.90
2022-10-06T23:38:51.836Z,99.90
2022-10-06T23:41:20.549Z,99.90
2022-10-06T23:43:48.763Z,99.90
2022-10-06T23:46:17.149Z,99.90
2022-10-06T23:48:45.384Z,99.90
2022-10-06T23:51:16.577Z,99.90
2022-10-06T23:53:45.467Z,99.90
2022-10-06T23:56:14.201Z,99.90
2022-10-06T23:58:42.797Z,99.90
